Flight Track Log - Related Links

Times and Time Zones

All times are in EDT time to prevent confusion due to time zone crossing. See the N2317S flight status page for this flight to view local times or setup timezone preferences in your user account.

Time Position Orientation Groundspeed Altitude Reporting Facility
EDT Latitude Longitude Course Direction KTS MPH feet Rate Location/Type
Thu 04:54:22 PM 41.1500 -73.1667 343° North 122 140 1,300  Level New York TRACON
Thu 04:55:22 PM 41.1833 -73.1833 339° North 123 142 2,100 800 Climbing New York TRACON
Thu 04:56:22 PM 41.2167 -73.1833 360° North 123 142 2,900 750 Climbing New York TRACON
Thu 04:57:22 PM 41.2500 -73.2000 339° North 125 144 3,600 744 Climbing New York TRACON
Thu 04:58:23 PM 41.2833 -73.2167 339° North 127 146 4,400 744 Climbing New York TRACON
Thu 04:59:00 PM 41.2935 -73.1806 343° North  Level FlightAware Approximate
Thu 04:59:23 PM 41.3167 -73.2333 339° North 127 146 5,100  Level New York TRACON
Thu 05:00:23 PM 41.3500 -73.2333 360° North 127 146 5,800 650 Climbing New York TRACON
Thu 05:01:23 PM 41.3833 -73.2500 339° North 127 146 6,400 629 Climbing New York TRACON
Thu 05:02:08 PM 41.4075 -73.2539 353° North 129 148 6,900 800 Climbing Boston Center
Thu 05:03:08 PM 41.4408 -73.2625 349° North 140 161 7,800 850 Climbing Boston Center
Thu 05:04:08 PM 41.4761 -73.2686 353° North 125 144 8,600 600 Climbing Boston Center
Thu 05:05:08 PM 41.5094 -73.2744 353° North 125 144 9,000 150 Climbing Boston Center
Thu 05:06:08 PM 41.5531 -73.2889 346° North 142 163 8,900 -50 Descending Boston Center
Thu 05:07:08 PM 41.5947 -73.3089 340° North 150 173 8,900  Level Boston Center
Thu 05:08:08 PM 41.6383 -73.3261 344° North 150 173 8,900 50 Level Boston Center
Thu 05:09:08 PM 41.6800 -73.3433 343° North 150 173 9,000 50 Climbing Boston Center
Thu 05:10:08 PM 41.7194 -73.3578 345° North 159 183 9,000  Level Boston Center
Thu 05:11:08 PM 41.7692 -73.3808 341° North 170 196 9,000  Level Boston Center
Thu 05:12:08 PM 41.8108 -73.3925 348° North 165 190 9,000 -118 Level Boston Center
Thu 05:12:50 PM 41.8400 -73.3903 North 167 192 8,800  Descending Boston Center
Thu 05:13:08 PM 41.8586 -73.3906 359° North 160 184 9,000 143 Climbing Boston Center
Thu 05:13:32 PM 41.8775 -73.3853 12° North 168 193 8,900  Descending Boston Center
Thu 05:14:08 PM 41.9006 -73.3828 North 160 184 9,000  Climbing Boston Center
Thu 05:14:39 PM 41.9256 -73.3806 North 161 185 8,900  Descending Boston Center
Thu 05:15:08 PM 41.9483 -73.3781 North 160 184 9,000  Climbing Boston Center
Thu 05:15:40 PM 41.9714 -73.3783 359° North 161 185 8,900  Descending Boston Center
Thu 05:16:08 PM 41.9881 -73.3786 359° North 160 184 9,000  Climbing Boston Center
Thu 05:16:40 PM 42.0153 -73.3733 North 160 184 8,900  Descending Boston Center
Thu 05:17:08 PM 42.0381 -73.3736 359° North 160 184 9,000  Climbing Boston Center
Thu 05:17:41 PM 42.0631 -73.3714 North 163 188 8,900 -100 Descending Boston Center
Thu 05:18:08 PM 42.0819 -73.3686 North 160 184 8,900  Level Boston Center
Thu 05:18:48 PM 42.1131 -73.3664 North 162 186 8,900  Level Boston Center
Thu 05:19:08 PM 42.1278 -73.3667 359° North 160 184 8,900  Level Boston Center
Thu 05:19:42 PM 42.1550 -73.3642 North 160 184 8,900 -100 Level Boston Center
Thu 05:20:08 PM 42.1717 -73.3617 North 160 184 8,800  Descending Boston Center
Thu 05:20:43 PM 42.1986 -73.3592 North 161 185 8,900 100 Climbing Boston Center
Thu 05:21:08 PM 42.2153 -73.3594 359° North 160 184 8,900  Level Boston Center
Thu 05:21:37 PM 42.2403 -73.3542 North 159 183 8,900  Level Boston Center
Thu 05:22:08 PM 42.2611 -73.3575 353° North 160 184 8,900  Level Boston Center
Thu 05:22:44 PM 42.2864 -73.3550 North 159 183 8,900  Level Boston Center
Thu 05:23:08 PM 42.3050 -73.3469 18° North 160 184 8,900  Level Boston Center
Thu 05:23:39 PM 42.3258 -73.3500 354° North 158 182 8,900  Level Boston Center
Thu 05:24:08 PM 42.3467 -73.3503 359° North 152 175 8,900  Level Boston Center
Thu 05:24:39 PM 42.3697 -73.3450 10° North 157 181 8,900  Level Boston Center
Thu 05:25:08 PM 42.3906 -73.3453 359° North 152 175 8,900  Level Boston Center
Thu 05:25:34 PM 42.4114 -73.3428 North 160 184 8,900  Level Boston Center
Thu 05:26:08 PM 42.4364 -73.3403 North 157 181 8,900  Level Boston Center
Thu 05:26:35 PM 42.4553 -73.3406 359° North 160 184 8,900  Level Boston Center
Thu 05:27:08 PM 42.4803 -73.3381 North 157 181 8,900  Level Boston Center
Thu 05:27:35 PM 42.5011 -73.3356 North 164 189 8,900 -73 Level Boston Center
Thu 05:28:30 PM 42.5447 -73.3333 North 164 189 8,800  Descending Boston Center
Thu 05:29:31 PM 42.5867 -73.3311 North 162 186 8,900 47 Climbing Boston Center
Thu 05:30:37 PM 42.6408 -73.3236 North 160 184 8,900  Level Boston Center
Thu 05:31:32 PM 42.6803 -73.3242 359° North 162 186 8,900  Level Boston Center
Thu 05:32:33 PM 42.7242 -73.3189 North 163 188 8,900  Level Boston Center
Thu 05:33:27 PM 42.7658 -73.3139 North 158 182 8,900  Level Boston Center
Thu 05:34:34 PM 42.8097 -73.3117 North 148 170 8,900  Level Boston Center
Thu 05:35:35 PM 42.8556 -73.3094 North 148 170 8,900  Level Boston Center
Thu 05:36:35 PM 42.8953 -73.3044 North 151 174 8,900  Level Boston Center
Thu 05:37:44 PM 42.9411 -73.2994 North 151 174 8,900 52 Level Boston Center
Thu 05:38:31 PM 42.9725 -73.3000 359° North 148 170 9,000  Climbing Boston Center
Thu 05:39:44 PM 43.0267 -73.2950 North 169 194 8,900 -45 Descending Boston Center
Thu 05:40:44 PM 43.0703 -73.2900 North 163 188 8,900  Level Boston Center
Thu 05:41:44 PM 43.1142 -73.2878 North 158 182 8,900  Level Boston Center
Thu 05:42:44 PM 43.1581 -73.2797 North 158 182 8,900  Level Boston Center
Thu 05:43:44 PM 43.2039 -73.2775 North 158 182 8,900 50 Level Boston Center
Thu 05:44:44 PM 43.2478 -73.2753 North 158 182 9,000  Climbing Boston Center
Thu 05:45:44 PM 43.2956 -73.2703 North 163 188 8,900 -50 Descending Boston Center
Thu 05:46:44 PM 43.3394 -73.2681 North 158 182 8,900  Level Boston Center
Thu 05:47:44 PM 43.3811 -73.2656 North 158 182 8,900  Level Boston Center
Thu 05:48:44 PM 43.4269 -73.2578 North 163 188 8,900  Level Boston Center
Thu 05:49:44 PM 43.4686 -73.2583 359° North 157 181 8,900  Level Boston Center
Thu 05:50:44 PM 43.5125 -73.2558 North 157 181 8,900  Level Boston Center
Thu 05:51:44 PM 43.5561 -73.2508 North 157 181 8,900  Level Boston Center
Thu 05:52:44 PM 43.6000 -73.2486 North 157 181 8,900  Level Boston Center
Thu 05:53:44 PM 43.6458 -73.2464 North 157 181 8,900 50 Level Boston Center
Thu 05:54:44 PM 43.6856 -73.2411 North 157 181 9,000 50 Climbing Boston Center
Thu 05:55:44 PM 43.7314 -73.2358 North 157 181 9,000  Level Boston Center
Thu 05:56:44 PM 43.7814 -73.2336 North 157 181 9,000 -50 Level Boston Center
Thu 05:57:44 PM 43.8272 -73.2286 North 162 186 8,900 -300 Descending Boston Center
Thu 05:58:44 PM 43.8711 -73.2206 North 162 186 8,400 -600 Descending Boston Center
Thu 05:59:44 PM 43.9192 -73.2125 North 162 186 7,700 -650 Descending Boston Center
Thu 06:00:44 PM 43.9650 -73.2072 North 162 186 7,100 -650 Descending Boston Center
Thu 06:01:44 PM 44.0108 -73.2022 North 162 186 6,400 -750 Descending Boston Center
Thu 06:02:44 PM 44.0567 -73.1942 North 162 186 5,600 -800 Descending Boston Center
Thu 06:03:44 PM 44.1025 -73.1889 North 162 186 4,800 -800 Descending Boston Center
Thu 06:04:44 PM 44.1486 -73.1808 North 162 186 4,000 -400 Descending Boston Center
Thu 06:05:44 PM 44.1861 -73.1756 North 152 175 4,000  Level Boston Center
Thu 06:06:44 PM 44.2214 -73.1700 North 132 152 4,000  Level Boston Center
Thu 06:07:44 PM 44.2508 -73.1675 North 115 132 4,000  Level Boston Center
Thu 06:08:44 PM 44.2800 -73.1650 North 109 125 4,000  Level Boston Center
Thu 06:10:00 PM 44.3317 -73.1585 North  Level FlightAware Approximate
Thu 06:17:00 PM 44.4667 -73.1500 North  Level FlightAware Approximate
Thu 06:18:00 PM 44.4719 -73.1533 North  Level Estimated
Thu 06:19:00 PM 44.4667 -73.1500 North  Level FlightAware Approximate
Thu 06:20:00 PM 44.4719 -73.1533 North  Level Estimated
Thu 06:21:00 PM 44.4667 -73.1500 North  Level FlightAware Approximate
Thu 06:22:00 PM 44.4719 -73.1533 North  Level Estimated

Login

Don't have an account? Register now (free) for customized features, flight alerts, and more!